Time;durP1;ratioP1;P1;durP2;ratioP2;P2;SDS_P1;SDS_P2;PMS_P1;PMS_P2;Temp;Humidity;BMP_temperature;BMP_pressure;BME280_temperature;BME280_humidity;BME280_pressure;Samples;Min_cycle;Max_cycle;Signal;HPM_P1;HPM_P2
2024/02/08 00:00:08;;;;;;;;;;;;;;;;;;343100;28;816;-82
2024/02/08 00:00:18;;;;;;;;;;;;;;;;;;343127;28;995;-82
2024/02/08 00:00:29;;;;;;;;;;;;;;;;;;341705;29;1058;-82
2024/02/08 00:00:39;;;;;;;;;;;;;;;;;;341331;29;802;-82
2024/02/08 00:00:49;;;;;;;;;;;;;;;;;;340393;29;1296;-82
2024/02/08 00:00:59;;;;;;;;;;;;;;;;;;341682;29;1420;-82
2024/02/08 00:01:09;;;;;;;;;;;;;;;;;;341699;29;985;-82
2024/02/08 00:01:20;;;;;;;;;;;;;;;;;;340357;29;1168;-82
2024/02/08 00:01:30;;;;;;;;;;;;;;;;;;340182;29;1216;-82
2024/02/08 00:01:40;;;;;;;;;;;;;;;;;;340273;29;1070;-82
2024/02/08 00:01:51;;;;;;;;;;;;;;;;;;341503;29;856;-82
2024/02/08 00:02:01;;;;;;;;;;;;;;;;;;342538;28;1551;-82
2024/02/08 00:02:11;;;;;;;;;;;;;;;;;;341593;29;1195;-82
2024/02/08 00:02:21;;;;;;;;;;;;;;;;;;342971;28;1497;-82
2024/02/08 00:02:31;;;;;;;;;;;;;;;;;;341562;29;935;-82
2024/02/08 00:02:42;;;;;;;;;;;;;;;;;;340338;29;1238;-82
2024/02/08 00:02:52;;;;;;;;;;;;;;;;;;340401;29;1014;-82
2024/02/08 00:03:07;;;;;;;;;;;;;;;;;;340395;29;986;-82
2024/02/08 00:03:17;;;;;;;;;;;;;;;;;;340276;29;1065;-82
2024/02/08 00:03:28;;;;;;;;;;;;;;;;;;341724;29;1010;-82
2024/02/08 00:03:38;;;;;;;;;;;;;;;;;;341567;29;1304;-82
2024/02/08 00:03:49;;;;;;;;;;;;;;;;;;342915;28;1153;-82
2024/02/08 00:04:00;;;;;;;;;;;;;;;;;;344431;28;1072;-82
2024/02/08 00:04:10;;;;;;;;;;;;;;;;;;344421;28;1014;-82
2024/02/08 00:04:21;;;;;;;;;;;;;;;;;;344459;28;923;-82
2024/02/08 00:04:31;;;;;;;;;;;;;;;;;;342918;28;1293;-82
2024/02/08 00:04:41;;;;;;;;;;;;;;;;;;343038;28;978;-82
2024/02/08 00:04:52;;;;;;;;;;;;;;;;;;344331;28;1219;-82
2024/02/08 00:05:02;;;;;;;;;;;;;;;;;;342711;28;1543;-82
2024/02/08 00:05:13;;;;;;;;;;;;;;;;;;341651;29;1193;-82
2024/02/08 00:05:23;;;;;;;;;;;;;;;;;;341641;29;1178;-82
2024/02/08 00:05:33;;;;;;;;;;;;;;;;;;341718;29;967;-82
2024/02/08 00:05:43;;;;;;;;;;;;;;;;;;341709;29;813;-82
2024/02/08 00:05:53;;;;;;;;;;;;;;;;;;343005;28;1081;-82
2024/02/08 00:06:04;;;;;;;;;;;;;;;;;;344342;28;1014;-82
2024/02/08 00:06:14;;;;;;;;;;;;;;;;;;343131;28;1134;-82
2024/02/08 00:06:24;;;;;;;;;;;;;;;;;;343006;28;990;-82
2024/02/08 00:06:34;;;;;;;;;;;;;;;;;;342952;28;1324;-83
2024/02/08 00:06:45;;;;;;;;;;;;;;;;;;342963;28;1309;-82
2024/02/08 00:06:55;;;;;;;;;;;;;;;;;;341614;28;1397;-82
2024/02/08 00:07:05;;;;;;;;;;;;;;;;;;341633;28;1018;-82
2024/02/08 00:07:15;;;;;;;;;;;;;;;;;;341532;29;1286;-82
2024/02/08 00:07:26;;;;;;;;;;;;;;;;;;342955;28;1166;-82
2024/02/08 00:07:36;;;;;;;;;;;;;;;;;;342944;28;891;-82
2024/02/08 00:07:46;;;;;;;;;;;;;;;;;;342883;28;1312;-82
2024/02/08 00:07:56;;;;;;;;;;;;;;;;;;343076;28;963;-82
2024/02/08 00:08:07;;;;;;;;;;;;;;;;;;344235;28;966;-82
2024/02/08 00:08:17;;;;;;;;;;;;;;;;;;341692;28;1315;-82
2024/02/08 00:08:28;;;;;;;;;;;;;;;;;;341367;29;1623;-82
2024/02/08 00:08:38;;;;;;;;;;;;;;;;;;343037;28;998;-82
2024/02/08 00:08:53;;;;;;;;;;;;;;;;;;344318;28;1357;-82
2024/02/08 00:09:03;;;;;;;;;;;;;;;;;;344424;28;1057;-82
2024/02/08 00:09:14;;;;;;;;;;;;;;;;;;342937;28;1097;-82
2024/02/08 00:09:24;;;;;;;;;;;;;;;;;;343013;28;1902;-82
2024/02/08 00:09:34;;;;;;;;;;;;;;;;;;343024;28;1026;-82
2024/02/08 00:09:44;;;;;;;;;;;;;;;;;;344398;28;844;-82
2024/02/08 00:09:55;;;;;;;;;;;;;;;;;;345778;28;867;-82
2024/02/08 00:10:08;;;;;;;;;;;;;;;;;;342915;28;1045;-82
2024/02/08 00:10:18;;;;;;;;;;;;;;;;;;341883;28;1161;-82
2024/02/08 00:10:28;;;;;;;;;;;;;;;;;;341711;29;1024;-82
2024/02/08 00:10:38;;;;;;;;;;;;;;;;;;341663;29;985;-82
2024/02/08 00:10:49;;;;;;;;;;;;;;;;;;340397;29;1298;-82
2024/02/08 00:10:59;;;;;;;;;;;;;;;;;;341559;29;1197;-82
2024/02/08 00:11:09;;;;;;;;;;;;;;;;;;340314;29;1316;-82
2024/02/08 00:11:20;;;;;;;;;;;;;;;;;;340394;29;959;-82
2024/02/08 00:11:33;;;;;;;;;;;;;;;;;;341745;29;1048;-82
2024/02/08 00:11:43;;;;;;;;;;;;;;;;;;340265;29;1192;-82
2024/02/08 00:11:53;;;;;;;;;;;;;;;;;;341153;29;871;-82
2024/02/08 00:12:04;;;;;;;;;;;;;;;;;;340269;29;955;-82
2024/02/08 00:12:14;;;;;;;;;;;;;;;;;;341692;29;1309;-82
2024/02/08 00:12:25;;;;;;;;;;;;;;;;;;342139;28;1375;-82
2024/02/08 00:12:37;;;;;;;;;;;;;;;;;;341691;29;1177;-82
2024/02/08 00:12:49;;;;;;;;;;;;;;;;;;341696;29;990;-82
2024/02/08 00:12:59;;;;;;;;;;;;;;;;;;340343;29;903;-82
2024/02/08 00:13:13;;;;;;;;;;;;;;;;;;340356;29;997;-82
2024/02/08 00:13:23;;;;;;;;;;;;;;;;;;340360;29;1058;-83
2024/02/08 00:13:34;;;;;;;;;;;;;;;;;;338942;29;1229;-82
2024/02/08 00:13:44;;;;;;;;;;;;;;;;;;339026;29;916;-82
2024/02/08 00:13:54;;;;;;;;;;;;;;;;;;340325;29;1152;-82
2024/02/08 00:14:04;;;;;;;;;;;;;;;;;;340387;29;935;-82
2024/02/08 00:14:14;;;;;;;;;;;;;;;;;;340444;29;995;-82
2024/02/08 00:14:25;;;;;;;;;;;;;;;;;;340383;29;1030;-82
2024/02/08 00:14:35;;;;;;;;;;;;;;;;;;340359;29;900;-82
2024/02/08 00:14:45;;;;;;;;;;;;;;;;;;340398;29;1074;-82
2024/02/08 00:14:55;;;;;;;;;;;;;;;;;;340404;28;948;-82
2024/02/08 00:15:06;;;;;;;;;;;;;;;;;;341525;29;935;-82
2024/02/08 00:15:16;;;;;;;;;;;;;;;;;;341781;29;943;-82
2024/02/08 00:15:29;;;;;;;;;;;;;;;;;;341914;28;1252;-82
2024/02/08 00:15:39;;;;;;;;;;;;;;;;;;342922;28;1441;-82
2024/02/08 00:15:50;;;;;;;;;;;;;;;;;;341619;29;1277;-82
2024/02/08 00:16:00;;;;;;;;;;;;;;;;;;341690;29;975;-82
2024/02/08 00:16:11;;;;;;;;;;;;;;;;;;340219;29;1349;-82
2024/02/08 00:16:21;;;;;;;;;;;;;;;;;;341619;29;1365;-82
2024/02/08 00:16:32;;;;;;;;;;;;;;;;;;341634;29;979;-82
2024/02/08 00:16:42;;;;;;;;;;;;;;;;;;342051;28;983;-82
2024/02/08 00:16:52;;;;;;;;;;;;;;;;;;342838;28;1136;-82
2024/02/08 00:17:02;;;;;;;;;;;;;;;;;;341689;28;1018;-82
2024/02/08 00:17:12;;;;;;;;;;;;;;;;;;341490;28;1105;-82
2024/02/08 00:17:23;;;;;;;;;;;;;;;;;;341712;29;1194;-82
2024/02/08 00:17:33;;;;;;;;;;;;;;;;;;341690;29;1010;-82
2024/02/08 00:17:47;;;;;;;;;;;;;;;;;;341670;28;982;-82
2024/02/08 00:17:57;;;;;;;;;;;;;;;;;;340311;29;1292;-82
2024/02/08 00:18:08;;;;;;;;;;;;;;;;;;340328;29;1181;-82
2024/02/08 00:18:18;;;;;;;;;;;;;;;;;;340185;29;1394;-82
2024/02/08 00:18:28;;;;;;;;;;;;;;;;;;340052;29;1058;-82
2024/02/08 00:18:38;;;;;;;;;;;;;;;;;;341567;29;1470;-82
2024/02/08 00:18:49;;;;;;;;;;;;;;;;;;342920;28;1193;-82
2024/02/08 00:19:02;;;;;;;;;;;;;;;;;;344352;28;932;-82
2024/02/08 00:19:15;;;;;;;;;;;;;;;;;;342980;28;1216;-82
2024/02/08 00:19:25;;;;;;;;;;;;;;;;;;341595;29;1181;-82
2024/02/08 00:19:36;;;;;;;;;;;;;;;;;;341706;29;978;-82
2024/02/08 00:19:48;;;;;;;;;;;;;;;;;;341651;29;1174;-82
2024/02/08 00:19:58;;;;;;;;;;;;;;;;;;341668;28;955;-82
2024/02/08 00:20:09;;;;;;;;;;;;;;;;;;343069;28;891;-82
2024/02/08 00:20:19;;;;;;;;;;;;;;;;;;341636;29;1044;-82
2024/02/08 00:20:29;;;;;;;;;;;;;;;;;;341714;29;974;-82
2024/02/08 00:20:40;;;;;;;;;;;;;;;;;;342984;28;982;-82
2024/02/08 00:20:50;;;;;;;;;;;;;;;;;;342990;28;965;-82
2024/02/08 00:21:00;;;;;;;;;;;;;;;;;;343060;28;792;-82
2024/02/08 00:21:10;;;;;;;;;;;;;;;;;;343016;28;978;-82
2024/02/08 00:21:21;;;;;;;;;;;;;;;;;;343037;28;951;-82
2024/02/08 00:21:32;;;;;;;;;;;;;;;;;;343049;28;846;-82
2024/02/08 00:21:44;;;;;;;;;;;;;;;;;;343013;28;1070;-82
2024/02/08 00:21:56;;;;;;;;;;;;;;;;;;343076;28;997;-82
2024/02/08 00:22:06;;;;;;;;;;;;;;;;;;343029;28;1042;-82
2024/02/08 00:22:20;;;;;;;;;;;;;;;;;;340348;29;967;-82
2024/02/08 00:22:30;;;;;;;;;;;;;;;;;;340382;29;983;-82
2024/02/08 00:22:43;;;;;;;;;;;;;;;;;;343102;28;1046;-82
2024/02/08 00:22:53;;;;;;;;;;;;;;;;;;342856;28;1296;-82
2024/02/08 00:23:03;;;;;;;;;;;;;;;;;;341704;29;978;-82
2024/02/08 00:23:14;;;;;;;;;;;;;;;;;;341925;28;1181;-82
2024/02/08 00:23:24;;;;;;;;;;;;;;;;;;343098;28;943;-82
2024/02/08 00:23:36;;;;;;;;;;;;;;;;;;342253;28;1371;-82
2024/02/08 00:23:47;;;;;;;;;;;;;;;;;;341703;29;1065;-82
2024/02/08 00:23:57;;;;;;;;;;;;;;;;;;340309;29;1401;-82
2024/02/08 00:24:07;;;;;;;;;;;;;;;;;;340284;29;1004;-82
2024/02/08 00:24:19;;;;;;;;;;;;;;;;;;340293;29;1416;-82
2024/02/08 00:24:30;;;;;;;;;;;;;;;;;;339170;29;948;-82
2024/02/08 00:24:40;;;;;;;;;;;;;;;;;;340316;29;1444;-82
2024/02/08 00:24:53;;;;;;;;;;;;;;;;;;340334;29;1080;-82
2024/02/08 00:25:04;;;;;;;;;;;;;;;;;;341705;29;979;-82
2024/02/08 00:25:14;;;;;;;;;;;;;;;;;;340249;29;1052;-82
2024/02/08 00:25:24;;;;;;;;;;;;;;;;;;341670;29;1006;-82
2024/02/08 00:25:34;;;;;;;;;;;;;;;;;;342903;28;1719;-82
2024/02/08 00:25:50;;;;;;;;;;;;;;;;;;344364;28;986;-82
2024/02/08 00:26:00;;;;;;;;;;;;;;;;;;342839;28;1671;-82
2024/02/08 00:26:10;;;;;;;;;;;;;;;;;;344283;28;1323;-82
2024/02/08 00:26:21;;;;;;;;;;;;;;;;;;344360;28;1034;-82
2024/02/08 00:26:31;;;;;;;;;;;;;;;;;;342368;28;1333;-82
2024/02/08 00:26:41;;;;;;;;;;;;;;;;;;341664;28;1185;-82
2024/02/08 00:26:52;;;;;;;;;;;;;;;;;;341617;29;1334;-82
2024/02/08 00:27:03;;;;;;;;;;;;;;;;;;341698;29;1044;-82
2024/02/08 00:27:13;;;;;;;;;;;;;;;;;;341632;29;1226;-82
2024/02/08 00:27:23;;;;;;;;;;;;;;;;;;341757;29;983;-82
2024/02/08 00:27:33;;;;;;;;;;;;;;;;;;341683;29;1218;-82
2024/02/08 00:27:46;;;;;;;;;;;;;;;;;;342988;28;1091;-83
2024/02/08 00:27:56;;;;;;;;;;;;;;;;;;341677;29;982;-82
2024/02/08 00:28:11;;;;;;;;;;;;;;;;;;341569;29;1114;-82
2024/02/08 00:28:22;;;;;;;;;;;;;;;;;;342908;28;1446;-82
2024/02/08 00:28:32;;;;;;;;;;;;;;;;;;342939;28;995;-82
2024/02/08 00:28:42;;;;;;;;;;;;;;;;;;344227;28;1320;-82
2024/02/08 00:28:52;;;;;;;;;;;;;;;;;;343030;28;797;-82
2024/02/08 00:29:03;;;;;;;;;;;;;;;;;;340283;29;1462;-82
2024/02/08 00:29:13;;;;;;;;;;;;;;;;;;340373;29;955;-82
2024/02/08 00:29:25;;;;;;;;;;;;;;;;;;340362;29;1966;-82
2024/02/08 00:29:39;;;;;;;;;;;;;;;;;;341715;29;1342;-82
2024/02/08 00:29:49;;;;;;;;;;;;;;;;;;344084;28;1170;-82
2024/02/08 00:30:01;;;;;;;;;;;;;;;;;;346978;28;1187;-82
2024/02/08 00:30:11;;;;;;;;;;;;;;;;;;342931;28;1299;-82
2024/02/08 00:30:22;;;;;;;;;;;;;;;;;;341627;28;1558;-82
2024/02/08 00:30:32;;;;;;;;;;;;;;;;;;341578;29;1369;-82
2024/02/08 00:30:42;;;;;;;;;;;;;;;;;;342969;28;1419;-82
2024/02/08 00:30:53;;;;;;;;;;;;;;;;;;342949;28;967;-82
2024/02/08 00:31:04;;;;;;;;;;;;;;;;;;343107;28;975;-82
2024/02/08 00:31:14;;;;;;;;;;;;;;;;;;342893;28;991;-82
2024/02/08 00:31:25;;;;;;;;;;;;;;;;;;342862;28;1292;-82
2024/02/08 00:31:35;;;;;;;;;;;;;;;;;;342982;28;1349;-82
2024/02/08 00:31:45;;;;;;;;;;;;;;;;;;343035;28;915;-82
2024/02/08 00:31:56;;;;;;;;;;;;;;;;;;340214;29;1227;-82
2024/02/08 00:32:06;;;;;;;;;;;;;;;;;;340336;29;1206;-82
2024/02/08 00:32:16;;;;;;;;;;;;;;;;;;341613;28;1321;-82
2024/02/08 00:32:27;;;;;;;;;;;;;;;;;;342988;28;931;-82
2024/02/08 00:32:37;;;;;;;;;;;;;;;;;;341603;29;919;-82
2024/02/08 00:32:48;;;;;;;;;;;;;;;;;;341720;29;958;-82
2024/02/08 00:33:00;;;;;;;;;;;;;;;;;;341715;28;1332;-82
2024/02/08 00:33:11;;;;;;;;;;;;;;;;;;344374;28;832;-82
2024/02/08 00:33:25;;;;;;;;;;;;;;;;;;343015;28;1014;-82
2024/02/08 00:33:35;;;;;;;;;;;;;;;;;;341685;29;955;-82
2024/02/08 00:33:48;;;;;;;;;;;;;;;;;;341937;28;1448;-82
2024/02/08 00:33:58;;;;;;;;;;;;;;;;;;344168;28;1189;-84
2024/02/08 00:34:09;;;;;;;;;;;;;;;;;;344309;28;1422;-82
2024/02/08 00:34:19;;;;;;;;;;;;;;;;;;342880;28;1188;-82
2024/02/08 00:34:29;;;;;;;;;;;;;;;;;;341625;28;1374;-82
2024/02/08 00:34:40;;;;;;;;;;;;;;;;;;340723;29;1030;-82
2024/02/08 00:34:50;;;;;;;;;;;;;;;;;;340398;29;987;-82
2024/02/08 00:35:03;;;;;;;;;;;;;;;;;;341591;29;1026;-82
2024/02/08 00:35:17;;;;;;;;;;;;;;;;;;343000;28;1034;-83
2024/02/08 00:35:27;;;;;;;;;;;;;;;;;;341655;29;951;-82
2024/02/08 00:35:37;;;;;;;;;;;;;;;;;;342395;28;1364;-82
2024/02/08 00:35:48;;;;;;;;;;;;;;;;;;340198;29;1625;-82
2024/02/08 00:35:58;;;;;;;;;;;;;;;;;;340244;29;1026;-83
2024/02/08 00:36:11;;;;;;;;;;;;;;;;;;341598;29;1185;-82
2024/02/08 00:36:21;;;;;;;;;;;;;;;;;;341411;29;971;-82
2024/02/08 00:36:31;;;;;;;;;;;;;;;;;;341268;29;1253;-82
2024/02/08 00:36:42;;;;;;;;;;;;;;;;;;339063;29;1193;-82
2024/02/08 00:36:52;;;;;;;;;;;;;;;;;;342738;28;995;-82
2024/02/08 00:37:03;;;;;;;;;;;;;;;;;;342743;28;1203;-83
2024/02/08 00:37:13;;;;;;;;;;;;;;;;;;341251;28;1698;-82
2024/02/08 00:37:23;;;;;;;;;;;;;;;;;;342629;28;1736;-82
2024/02/08 00:37:33;;;;;;;;;;;;;;;;;;342144;28;1604;-82
2024/02/08 00:37:47;;;;;;;;;;;;;;;;;;343637;28;1287;-82
2024/02/08 00:37:57;;;;;;;;;;;;;;;;;;341694;29;1127;-82
2024/02/08 00:38:07;;;;;;;;;;;;;;;;;;340314;29;1315;-82
2024/02/08 00:38:18;;;;;;;;;;;;;;;;;;340134;29;987;-82
2024/02/08 00:38:29;;;;;;;;;;;;;;;;;;340389;29;999;-82
2024/02/08 00:38:39;;;;;;;;;;;;;;;;;;340311;29;1007;-82
2024/02/08 00:38:49;;;;;;;;;;;;;;;;;;339151;29;1034;-82
2024/02/08 00:39:01;;;;;;;;;;;;;;;;;;340357;29;844;-82
2024/02/08 00:39:11;;;;;;;;;;;;;;;;;;341600;29;943;-82
2024/02/08 00:39:21;;;;;;;;;;;;;;;;;;341822;28;1491;-82
2024/02/08 00:39:31;;;;;;;;;;;;;;;;;;342172;28;1229;-82
2024/02/08 00:39:42;;;;;;;;;;;;;;;;;;342958;28;998;-82
2024/02/08 00:39:52;;;;;;;;;;;;;;;;;;343021;28;990;-82
2024/02/08 00:40:02;;;;;;;;;;;;;;;;;;342845;28;939;-82
2024/02/08 00:40:14;;;;;;;;;;;;;;;;;;341726;29;1026;-82
2024/02/08 00:40:24;;;;;;;;;;;;;;;;;;342943;28;1226;-82
2024/02/08 00:40:34;;;;;;;;;;;;;;;;;;341426;29;1244;-82
2024/02/08 00:40:46;;;;;;;;;;;;;;;;;;340336;29;944;-82
2024/02/08 00:40:56;;;;;;;;;;;;;;;;;;340262;29;876;-82
2024/02/08 00:41:06;;;;;;;;;;;;;;;;;;341798;28;1276;-82
2024/02/08 00:41:16;;;;;;;;;;;;;;;;;;340461;29;875;-82
2024/02/08 00:41:27;;;;;;;;;;;;;;;;;;338994;29;944;-82
2024/02/08 00:41:37;;;;;;;;;;;;;;;;;;340378;29;1146;-82
2024/02/08 00:41:50;;;;;;;;;;;;;;;;;;341783;28;1329;-82
2024/02/08 00:42:00;;;;;;;;;;;;;;;;;;340304;29;1329;-82
2024/02/08 00:42:13;;;;;;;;;;;;;;;;;;341559;29;1199;-82
2024/02/08 00:42:23;;;;;;;;;;;;;;;;;;341691;29;995;-82
2024/02/08 00:42:33;;;;;;;;;;;;;;;;;;342406;28;1204;-82
2024/02/08 00:42:46;;;;;;;;;;;;;;;;;;342895;28;1002;-82
2024/02/08 00:42:56;;;;;;;;;;;;;;;;;;341571;29;1717;-82
2024/02/08 00:43:06;;;;;;;;;;;;;;;;;;341590;29;1213;-82
2024/02/08 00:43:19;;;;;;;;;;;;;;;;;;341729;29;911;-82
2024/02/08 00:43:30;;;;;;;;;;;;;;;;;;340324;29;1026;-82
2024/02/08 00:43:40;;;;;;;;;;;;;;;;;;340451;29;887;-82
2024/02/08 00:43:50;;;;;;;;;;;;;;;;;;340422;29;975;-82
2024/02/08 00:44:00;;;;;;;;;;;;;;;;;;341735;29;956;-82
2024/02/08 00:44:11;;;;;;;;;;;;;;;;;;343267;28;1519;-82
2024/02/08 00:44:26;;;;;;;;;;;;;;;;;;341987;28;1129;-82
2024/02/08 00:44:36;;;;;;;;;;;;;;;;;;341545;29;968;-82
2024/02/08 00:44:47;;;;;;;;;;;;;;;;;;341698;29;1011;-82
2024/02/08 00:44:57;;;;;;;;;;;;;;;;;;340281;29;1181;-82
2024/02/08 00:45:08;;;;;;;;;;;;;;;;;;340308;29;1086;-82
2024/02/08 00:45:22;;;;;;;;;;;;;;;;;;338814;29;1528;-82
2024/02/08 00:45:33;;;;;;;;;;;;;;;;;;338967;29;974;-82
2024/02/08 00:45:43;;;;;;;;;;;;;;;;;;339073;29;1041;-82
2024/02/08 00:45:54;;;;;;;;;;;;;;;;;;340248;29;1104;-82
2024/02/08 00:46:04;;;;;;;;;;;;;;;;;;341659;29;1320;-82
2024/02/08 00:46:15;;;;;;;;;;;;;;;;;;341663;29;991;-82
2024/02/08 00:46:25;;;;;;;;;;;;;;;;;;340368;29;995;-82
2024/02/08 00:46:38;;;;;;;;;;;;;;;;;;341658;29;853;-82
2024/02/08 00:46:51;;;;;;;;;;;;;;;;;;341600;29;1512;-82
2024/02/08 00:47:01;;;;;;;;;;;;;;;;;;341621;29;1038;-82
2024/02/08 00:47:12;;;;;;;;;;;;;;;;;;341137;28;1652;-82
2024/02/08 00:47:24;;;;;;;;;;;;;;;;;;340331;29;1027;-82
2024/02/08 00:47:34;;;;;;;;;;;;;;;;;;341571;29;1335;-82
2024/02/08 00:47:45;;;;;;;;;;;;;;;;;;341624;29;959;-82
2024/02/08 00:47:57;;;;;;;;;;;;;;;;;;341659;29;994;-82
2024/02/08 00:48:07;;;;;;;;;;;;;;;;;;343047;28;910;-82
2024/02/08 00:48:20;;;;;;;;;;;;;;;;;;343099;28;1076;-82
2024/02/08 00:48:31;;;;;;;;;;;;;;;;;;344280;28;1001;-82
2024/02/08 00:48:43;;;;;;;;;;;;;;;;;;342919;28;1293;-82
2024/02/08 00:48:54;;;;;;;;;;;;;;;;;;343036;28;1070;-82
2024/02/08 00:49:04;;;;;;;;;;;;;;;;;;342945;28;1215;-82
2024/02/08 00:49:14;;;;;;;;;;;;;;;;;;344169;28;899;-82
2024/02/08 00:49:24;;;;;;;;;;;;;;;;;;344263;28;1970;-82
2024/02/08 00:49:34;;;;;;;;;;;;;;;;;;344313;28;1002;-82
2024/02/08 00:49:48;;;;;;;;;;;;;;;;;;343418;28;1469;-81
2024/02/08 00:49:59;;;;;;;;;;;;;;;;;;341573;29;1201;-82
2024/02/08 00:50:09;;;;;;;;;;;;;;;;;;340383;29;1022;-82
2024/02/08 00:50:21;;;;;;;;;;;;;;;;;;341596;29;1221;-82
2024/02/08 00:50:31;;;;;;;;;;;;;;;;;;341640;28;1034;-82
2024/02/08 00:50:41;;;;;;;;;;;;;;;;;;341714;29;999;-82
2024/02/08 00:50:53;;;;;;;;;;;;;;;;;;341505;29;1177;-82
2024/02/08 00:51:03;;;;;;;;;;;;;;;;;;341690;29;987;-82
2024/02/08 00:51:14;;;;;;;;;;;;;;;;;;341590;29;995;-82
2024/02/08 00:51:25;;;;;;;;;;;;;;;;;;341747;29;1002;-82
2024/02/08 00:51:35;;;;;;;;;;;;;;;;;;342864;28;1021;-82
2024/02/08 00:51:48;;;;;;;;;;;;;;;;;;344277;28;959;-82
2024/02/08 00:51:59;;;;;;;;;;;;;;;;;;342930;28;1038;-82
2024/02/08 00:52:09;;;;;;;;;;;;;;;;;;343046;28;1045;-82
2024/02/08 00:52:19;;;;;;;;;;;;;;;;;;342783;28;970;-82
2024/02/08 00:52:32;;;;;;;;;;;;;;;;;;342463;28;1268;-82
2024/02/08 00:52:43;;;;;;;;;;;;;;;;;;341688;29;990;-82
2024/02/08 00:52:53;;;;;;;;;;;;;;;;;;340269;29;1015;-82
2024/02/08 00:53:06;;;;;;;;;;;;;;;;;;340457;29;975;-82
2024/02/08 00:53:16;;;;;;;;;;;;;;;;;;341617;29;1007;-82
2024/02/08 00:53:26;;;;;;;;;;;;;;;;;;341760;29;1050;-82
2024/02/08 00:53:36;;;;;;;;;;;;;;;;;;343011;28;998;-82
2024/02/08 00:53:47;;;;;;;;;;;;;;;;;;343094;28;884;-82
2024/02/08 00:53:59;;;;;;;;;;;;;;;;;;341593;29;1310;-82
2024/02/08 00:54:09;;;;;;;;;;;;;;;;;;341733;28;833;-82
2024/02/08 00:54:19;;;;;;;;;;;;;;;;;;341725;29;1082;-82
2024/02/08 00:54:29;;;;;;;;;;;;;;;;;;343344;28;1618;-82
2024/02/08 00:54:40;;;;;;;;;;;;;;;;;;342928;28;1233;-82
2024/02/08 00:54:50;;;;;;;;;;;;;;;;;;343000;28;1034;-82
2024/02/08 00:55:00;;;;;;;;;;;;;;;;;;341457;28;1183;-82
2024/02/08 00:55:10;;;;;;;;;;;;;;;;;;341556;29;1653;-82
2024/02/08 00:55:21;;;;;;;;;;;;;;;;;;340348;29;959;-82
2024/02/08 00:55:33;;;;;;;;;;;;;;;;;;340411;29;967;-82
2024/02/08 00:55:46;;;;;;;;;;;;;;;;;;340232;29;1246;-82
2024/02/08 00:55:56;;;;;;;;;;;;;;;;;;340424;29;999;-82
2024/02/08 00:56:09;;;;;;;;;;;;;;;;;;341591;29;1228;-82
2024/02/08 00:56:21;;;;;;;;;;;;;;;;;;342902;28;1217;-82
2024/02/08 00:56:31;;;;;;;;;;;;;;;;;;343031;28;772;-82
2024/02/08 00:56:42;;;;;;;;;;;;;;;;;;344341;28;938;-82
2024/02/08 00:56:53;;;;;;;;;;;;;;;;;;342807;28;1195;-82
2024/02/08 00:57:07;;;;;;;;;;;;;;;;;;340655;29;1096;-82
2024/02/08 00:57:17;;;;;;;;;;;;;;;;;;342079;28;1469;-82
2024/02/08 00:57:32;;;;;;;;;;;;;;;;;;342750;28;1404;-82
2024/02/08 00:57:42;;;;;;;;;;;;;;;;;;341662;29;891;-82
2024/02/08 00:57:54;;;;;;;;;;;;;;;;;;341630;28;1050;-82
2024/02/08 00:58:04;;;;;;;;;;;;;;;;;;343786;28;1293;-82
2024/02/08 00:58:15;;;;;;;;;;;;;;;;;;344315;28;994;-82
2024/02/08 00:58:26;;;;;;;;;;;;;;;;;;344261;28;1299;-82
2024/02/08 00:58:36;;;;;;;;;;;;;;;;;;342926;28;1053;-82
2024/02/08 00:58:47;;;;;;;;;;;;;;;;;;342919;28;1497;-82
2024/02/08 00:58:57;;;;;;;;;;;;;;;;;;345379;28;1200;-82
2024/02/08 00:59:07;;;;;;;;;;;;;;;;;;343093;28;986;-82
2024/02/08 00:59:18;;;;;;;;;;;;;;;;;;344299;28;1002;-82
2024/02/08 00:59:28;;;;;;;;;;;;;;;;;;344396;28;1073;-82
2024/02/08 00:59:38;;;;;;;;;;;;;;;;;;342722;28;1438;-82
2024/02/08 00:59:48;;;;;;;;;;;;;;;;;;342962;28;975;-82
2024/02/08 00:59:59;;;;;;;;;;;;;;;;;;340235;29;1325;-82
2024/02/08 01:00:10;;;;;;;;;;;;;;;;;;341535;29;1273;-82
2024/02/08 01:00:20;;;;;;;;;;;;;;;;;;342302;28;1249;-82
2024/02/08 01:00:37;;;;;;;;;;;;;;;;;;343002;28;990;-82
2024/02/08 01:00:47;;;;;;;;;;;;;;;;;;344331;28;962;-82
2024/02/08 01:00:57;;;;;;;;;;;;;;;;;;345606;28;1200;-82
2024/02/08 01:01:08;;;;;;;;;;;;;;;;;;345762;28;1053;-82
2024/02/08 01:01:18;;;;;;;;;;;;;;;;;;345596;28;1002;-82
2024/02/08 01:01:31;;;;;;;;;;;;;;;;;;344307;28;792;-82
2024/02/08 01:01:42;;;;;;;;;;;;;;;;;;342876;28;1189;-82
2024/02/08 01:01:52;;;;;;;;;;;;;;;;;;341702;29;1038;-82
2024/02/08 01:02:02;;;;;;;;;;;;;;;;;;341573;29;1145;-82
2024/02/08 01:02:13;;;;;;;;;;;;;;;;;;344006;28;966;-82
2024/02/08 01:02:23;;;;;;;;;;;;;;;;;;344240;28;1195;-82
2024/02/08 01:02:33;;;;;;;;;;;;;;;;;;344709;28;1450;-82
2024/02/08 01:02:43;;;;;;;;;;;;;;;;;;344145;28;1241;-82
2024/02/08 01:02:54;;;;;;;;;;;;;;;;;;342984;28;1380;-82
2024/02/08 01:03:04;;;;;;;;;;;;;;;;;;341641;28;1054;-82
2024/02/08 01:03:15;;;;;;;;;;;;;;;;;;341609;29;1411;-82
2024/02/08 01:03:25;;;;;;;;;;;;;;;;;;341654;29;1210;-82
2024/02/08 01:03:36;;;;;;;;;;;;;;;;;;342769;28;1429;-82
2024/02/08 01:03:46;;;;;;;;;;;;;;;;;;344250;28;1317;-82
2024/02/08 01:03:56;;;;;;;;;;;;;;;;;;344398;28;1007;-82
2024/02/08 01:04:07;;;;;;;;;;;;;;;;;;346913;28;1186;-82
2024/02/08 01:04:21;;;;;;;;;;;;;;;;;;347085;28;1084;-82
2024/02/08 01:04:32;;;;;;;;;;;;;;;;;;346694;28;1521;-82
2024/02/08 01:04:48;;;;;;;;;;;;;;;;;;344137;28;1418;-82
2024/02/08 01:04:58;;;;;;;;;;;;;;;;;;345635;28;1376;-82
2024/02/08 01:05:09;;;;;;;;;;;;;;;;;;343830;28;959;-82
2024/02/08 01:05:20;;;;;;;;;;;;;;;;;;344225;28;1431;-82
2024/02/08 01:05:31;;;;;;;;;;;;;;;;;;342730;28;1237;-82
2024/02/08 01:05:42;;;;;;;;;;;;;;;;;;345675;28;975;-82
2024/02/08 01:05:53;;;;;;;;;;;;;;;;;;344190;28;1344;-82
2024/02/08 01:06:03;;;;;;;;;;;;;;;;;;344321;28;911;-82
2024/02/08 01:06:13;;;;;;;;;;;;;;;;;;343504;28;1293;-82
2024/02/08 01:06:23;;;;;;;;;;;;;;;;;;342957;28;971;-82
2024/02/08 01:06:34;;;;;;;;;;;;;;;;;;342849;28;1299;-82
2024/02/08 01:06:44;;;;;;;;;;;;;;;;;;343031;28;1007;-82
2024/02/08 01:06:55;;;;;;;;;;;;;;;;;;344271;28;1204;-82
2024/02/08 01:07:05;;;;;;;;;;;;;;;;;;344118;28;1333;-82
2024/02/08 01:07:15;;;;;;;;;;;;;;;;;;342999;28;1018;-82
2024/02/08 01:07:26;;;;;;;;;;;;;;;;;;342957;28;1208;-82
2024/02/08 01:07:36;;;;;;;;;;;;;;;;;;344259;28;990;-82
2024/02/08 01:07:47;;;;;;;;;;;;;;;;;;344325;28;1010;-82
2024/02/08 01:07:57;;;;;;;;;;;;;;;;;;344409;28;987;-82
2024/02/08 01:08:08;;;;;;;;;;;;;;;;;;342955;28;994;-82
2024/02/08 01:08:18;;;;;;;;;;;;;;;;;;342963;28;1330;-82
2024/02/08 01:08:29;;;;;;;;;;;;;;;;;;344337;28;1046;-82
2024/02/08 01:08:39;;;;;;;;;;;;;;;;;;344285;28;979;-82
2024/02/08 01:08:50;;;;;;;;;;;;;;;;;;344368;28;994;-82
2024/02/08 01:09:01;;;;;;;;;;;;;;;;;;341596;28;1233;-82
2024/02/08 01:09:11;;;;;;;;;;;;;;;;;;342875;28;1115;-82
2024/02/08 01:09:21;;;;;;;;;;;;;;;;;;342909;28;1978;-82
2024/02/08 01:09:31;;;;;;;;;;;;;;;;;;343058;28;916;-82
2024/02/08 01:09:42;;;;;;;;;;;;;;;;;;344241;28;1231;-82
2024/02/08 01:09:52;;;;;;;;;;;;;;;;;;344334;28;990;-82
2024/02/08 01:10:02;;;;;;;;;;;;;;;;;;344274;28;1022;-82
2024/02/08 01:10:12;;;;;;;;;;;;;;;;;;344331;28;991;-82
2024/02/08 01:10:23;;;;;;;;;;;;;;;;;;344602;28;1492;-82
2024/02/08 01:10:33;;;;;;;;;;;;;;;;;;345720;28;910;-82
2024/02/08 01:10:43;;;;;;;;;;;;;;;;;;345550;28;1216;-82
2024/02/08 01:10:53;;;;;;;;;;;;;;;;;;345729;28;1056;-82
2024/02/08 01:11:04;;;;;;;;;;;;;;;;;;345710;28;918;-83
2024/02/08 01:11:14;;;;;;;;;;;;;;;;;;345680;28;958;-82
2024/02/08 01:11:24;;;;;;;;;;;;;;;;;;344515;28;1193;-82
2024/02/08 01:11:34;;;;;;;;;;;;;;;;;;345416;28;1414;-82
2024/02/08 01:11:45;;;;;;;;;;;;;;;;;;345599;28;1306;-82
2024/02/08 01:11:55;;;;;;;;;;;;;;;;;;344074;28;1311;-82
2024/02/08 01:12:05;;;;;;;;;;;;;;;;;;342934;28;1211;-82
2024/02/08 01:12:18;;;;;;;;;;;;;;;;;;344318;28;999;-82
2024/02/08 01:12:28;;;;;;;;;;;;;;;;;;343074;28;914;-82
2024/02/08 01:12:39;;;;;;;;;;;;;;;;;;342899;28;1399;-82
2024/02/08 01:12:50;;;;;;;;;;;;;;;;;;341607;29;1417;-82
2024/02/08 01:13:00;;;;;;;;;;;;;;;;;;341676;28;1081;-82
2024/02/08 01:13:11;;;;;;;;;;;;;;;;;;341598;29;1168;-82
2024/02/08 01:13:24;;;;;;;;;;;;;;;;;;341433;29;1062;-82
2024/02/08 01:13:34;;;;;;;;;;;;;;;;;;341491;29;1276;-82
2024/02/08 01:13:44;;;;;;;;;;;;;;;;;;341725;29;801;-82
2024/02/08 01:13:54;;;;;;;;;;;;;;;;;;343072;28;991;-82
2024/02/08 01:14:04;;;;;;;;;;;;;;;;;;345842;28;1311;-82
2024/02/08 01:14:21;;;;;;;;;;;;;;;;;;344507;28;1316;-82
2024/02/08 01:14:31;;;;;;;;;;;;;;;;;;343136;28;951;-82
2024/02/08 01:14:42;;;;;;;;;;;;;;;;;;341735;28;995;-82
2024/02/08 01:14:52;;;;;;;;;;;;;;;;;;344594;28;1173;-82
2024/02/08 01:15:04;;;;;;;;;;;;;;;;;;344587;28;978;-82
2024/02/08 01:15:14;;;;;;;;;;;;;;;;;;345968;28;1040;-82
2024/02/08 01:15:24;;;;;;;;;;;;;;;;;;344522;28;1586;-82
2024/02/08 01:15:35;;;;;;;;;;;;;;;;;;344576;28;1014;-82
2024/02/08 01:15:49;;;;;;;;;;;;;;;;;;345968;28;1014;-82
2024/02/08 01:15:59;;;;;;;;;;;;;;;;;;345188;28;1203;-82
2024/02/08 01:16:11;;;;;;;;;;;;;;;;;;343339;28;999;-82
2024/02/08 01:16:21;;;;;;;;;;;;;;;;;;340621;29;1218;-82
2024/02/08 01:16:33;;;;;;;;;;;;;;;;;;340615;29;999;-82
2024/02/08 01:16:44;;;;;;;;;;;;;;;;;;342925;28;1095;-82
2024/02/08 01:16:54;;;;;;;;;;;;;;;;;;344539;28;1234;-82